THA434 WIII-VTBS
Flight info
| Callsign | THA434 |
|---|---|
| Flight time | 2h 58m |
| Altitude | 40000 |
| Route | DOLTA G579 SJ B469 VPK M751 VKB M644 ALUMO Y12 ALEMI TUMGA1C |
| Aircraft | B772/H-SDE2E3FGHIJ5LORVWXY/LB1D1 |
Departure
| Time | 2026-05-04 23:26 |
|---|---|
| Airport | Soekarno-Hatta International Airport (WIII) |
Arrival
| Time | 2026-05-05 02:24 |
|---|---|
| Airport | Suvarnabhumi Airport (VTBS) |
| Time | Latitude | Longitude | Altitude | Speed | Heading |
|---|---|---|---|---|---|
| 2026-05-04 22:18 | -6.11872 | 106.66158 | 42 ft | 0 kts | 159° |
| 2026-05-04 23:14 | -6.11863 | 106.66155 | 40 ft | 4 kts | 159° |
| 2026-05-04 23:15 | -6.11838 | 106.66145 | 42 ft | 4 kts | 158° |
| 2026-05-04 23:15 | -6.11813 | 106.66134 | 41 ft | 4 kts | 149° |
| 2026-05-04 23:15 | -6.11793 | 106.66119 | 41 ft | 4 kts | 124° |
| 2026-05-04 23:15 | -6.11786 | 106.66105 | 37 ft | 3 kts | 72° |
| 2026-05-04 23:16 | -6.11787 | 106.66103 | 37 ft | 3 kts | 68° |
| 2026-05-04 23:19 | -6.11776 | 106.66129 | 41 ft | 7 kts | 68° |
| 2026-05-04 23:19 | -6.11749 | 106.66193 | 42 ft | 13 kts | 66° |
| 2026-05-04 23:19 | -6.11719 | 106.66264 | 42 ft | 16 kts | 66° |
| 2026-05-04 23:20 | -6.11702 | 106.66314 | 42 ft | 16 kts | 68° |
| 2026-05-04 23:20 | -6.11674 | 106.66381 | 42 ft | 8 kts | 59° |
| 2026-05-04 23:20 | -6.11627 | 106.66401 | 42 ft | 7 kts | 360° |
| 2026-05-04 23:20 | -6.11578 | 106.66385 | 42 ft | 8 kts | 338° |
| 2026-05-04 23:21 | -6.11498 | 106.66354 | 42 ft | 16 kts | 339° |
| 2026-05-04 23:21 | -6.11399 | 106.66314 | 43 ft | 11 kts | 338° |
| 2026-05-04 23:21 | -6.11328 | 106.66325 | 43 ft | 11 kts | 43° |
| 2026-05-04 23:21 | -6.11295 | 106.66393 | 43 ft | 12 kts | 68° |
| 2026-05-04 23:22 | -6.11258 | 106.66482 | 43 ft | 17 kts | 67° |
| 2026-05-04 23:22 | -6.11211 | 106.66604 | 43 ft | 19 kts | 68° |
| 2026-05-04 23:22 | -6.11160 | 106.66731 | 43 ft | 19 kts | 68° |
| 2026-05-04 23:22 | -6.11111 | 106.66855 | 43 ft | 19 kts | 68° |
| 2026-05-04 23:23 | -6.11063 | 106.66955 | 43 ft | 13 kts | 45° |
| 2026-05-04 23:23 | -6.10992 | 106.66970 | 43 ft | 11 kts | 347° |
| 2026-05-04 23:23 | -6.10943 | 106.66924 | 43 ft | 9 kts | 305° |
| 2026-05-04 23:23 | -6.10918 | 106.66883 | 43 ft | 6 kts | 301° |
| 2026-05-04 23:24 | -6.10921 | 106.66842 | 43 ft | 5 kts | 248° |
| 2026-05-04 23:24 | -6.10922 | 106.66839 | 41 ft | 0 kts | 248° |
| 2026-05-04 23:25 | -6.10975 | 106.66709 | 43 ft | 56 kts | 248° |
| 2026-05-04 23:25 | -6.11220 | 106.66097 | 44 ft | 130 kts | 248° |
| 2026-05-04 23:25 | -6.11628 | 106.65070 | 237 ft | 171 kts | 249° |
| 2026-05-04 23:26 | -6.12038 | 106.63941 | 1000 ft | 173 kts | 248° |
| 2026-05-04 23:26 | -6.12300 | 106.62745 | 1514 ft | 187 kts | 278° |
| 2026-05-04 23:26 | -6.11880 | 106.61439 | 1729 ft | 209 kts | 290° |
| 2026-05-04 23:26 | -6.11380 | 106.59955 | 1917 ft | 238 kts | 288° |
| 2026-05-04 23:27 | -6.10853 | 106.58282 | 2205 ft | 262 kts | 287° |
| 2026-05-04 23:27 | -6.10312 | 106.56496 | 2833 ft | 271 kts | 287° |
| 2026-05-04 23:27 | -6.09778 | 106.54684 | 3596 ft | 276 kts | 287° |
| 2026-05-04 23:27 | -6.09232 | 106.52807 | 4412 ft | 278 kts | 286° |
| 2026-05-04 23:28 | -6.08690 | 106.50931 | 5193 ft | 280 kts | 286° |
| 2026-05-04 23:28 | -6.08078 | 106.49103 | 5838 ft | 281 kts | 298° |
| 2026-05-04 23:28 | -6.06766 | 106.47643 | 6424 ft | 284 kts | 326° |
| 2026-05-04 23:28 | -6.05095 | 106.46580 | 7011 ft | 287 kts | 329° |
| 2026-05-04 23:29 | -6.03384 | 106.45519 | 7700 ft | 289 kts | 329° |
| 2026-05-04 23:29 | -6.01666 | 106.44456 | 8414 ft | 291 kts | 329° |
| 2026-05-04 23:29 | -5.99934 | 106.43384 | 9084 ft | 294 kts | 329° |
| 2026-05-04 23:29 | -5.98183 | 106.42298 | 9741 ft | 297 kts | 329° |
| 2026-05-04 23:30 | -5.96410 | 106.41194 | 10296 ft | 304 kts | 329° |
| 2026-05-04 23:30 | -5.94545 | 106.40032 | 10485 ft | 327 kts | 329° |
| 2026-05-04 23:30 | -5.92539 | 106.38780 | 10683 ft | 352 kts | 329° |
| 2026-05-04 23:30 | -5.90424 | 106.37457 | 11185 ft | 364 kts | 329° |
| 2026-05-04 23:31 | -5.88251 | 106.36097 | 11876 ft | 372 kts | 329° |
| 2026-05-04 23:31 | -5.86034 | 106.34708 | 12756 ft | 376 kts | 329° |
| 2026-05-04 23:31 | -5.83803 | 106.33310 | 13651 ft | 381 kts | 329° |
| 2026-05-04 23:31 | -5.81539 | 106.31893 | 14418 ft | 385 kts | 329° |
| 2026-05-04 23:32 | -5.79248 | 106.30458 | 15180 ft | 390 kts | 329° |
| 2026-05-04 23:32 | -5.76936 | 106.29010 | 15958 ft | 395 kts | 329° |
| 2026-05-04 23:32 | -5.74586 | 106.27540 | 16780 ft | 400 kts | 329° |
| 2026-05-04 23:32 | -5.72204 | 106.26081 | 17587 ft | 404 kts | 331° |
| 2026-05-04 23:33 | -5.69745 | 106.24676 | 18384 ft | 408 kts | 332° |
| 2026-05-04 23:33 | -5.67244 | 106.23287 | 19107 ft | 412 kts | 332° |
| 2026-05-04 23:33 | -5.65570 | 106.22361 | 19581 ft | 415 kts | 332° |
| 2026-05-04 23:33 | -5.63031 | 106.20951 | 20290 ft | 420 kts | 332° |
| 2026-05-04 23:34 | -5.60464 | 106.19515 | 20999 ft | 425 kts | 332° |
| 2026-05-04 23:34 | -5.57870 | 106.18057 | 21697 ft | 430 kts | 332° |
| 2026-05-04 23:34 | -5.55246 | 106.16577 | 22403 ft | 435 kts | 332° |
| 2026-05-04 23:34 | -5.52593 | 106.15079 | 23105 ft | 440 kts | 332° |
| 2026-05-04 23:35 | -5.49913 | 106.13565 | 23738 ft | 444 kts | 332° |
| 2026-05-04 23:35 | -5.47208 | 106.12037 | 24318 ft | 448 kts | 332° |
| 2026-05-04 23:35 | -5.44491 | 106.10502 | 24917 ft | 451 kts | 332° |
| 2026-05-04 23:35 | -5.41737 | 106.08947 | 25497 ft | 454 kts | 332° |
| 2026-05-04 23:36 | -5.38966 | 106.07384 | 26037 ft | 458 kts | 332° |
| 2026-05-04 23:36 | -5.36178 | 106.05811 | 26574 ft | 462 kts | 332° |
| 2026-05-04 23:36 | -5.33371 | 106.04227 | 27076 ft | 465 kts | 332° |
| 2026-05-04 23:36 | -5.30542 | 106.02630 | 27578 ft | 469 kts | 332° |
| 2026-05-04 23:37 | -5.27686 | 106.01018 | 28052 ft | 472 kts | 332° |
| 2026-05-04 23:37 | -5.24820 | 105.99400 | 28524 ft | 475 kts | 332° |
| 2026-05-04 23:37 | -5.21928 | 105.97767 | 28969 ft | 478 kts | 332° |
| 2026-05-04 23:37 | -5.19019 | 105.96124 | 29410 ft | 482 kts | 332° |
| 2026-05-04 23:38 | -5.16124 | 105.94490 | 29824 ft | 485 kts | 332° |
| 2026-05-04 23:38 | -5.13173 | 105.92825 | 30177 ft | 488 kts | 332° |
| 2026-05-04 23:38 | -5.10201 | 105.91144 | 30521 ft | 491 kts | 332° |
| 2026-05-04 23:38 | -5.07224 | 105.89450 | 30874 ft | 493 kts | 331° |
| 2026-05-04 23:39 | -5.04244 | 105.87750 | 31201 ft | 495 kts | 331° |
| 2026-05-04 23:39 | -5.01244 | 105.86037 | 31488 ft | 497 kts | 331° |
| 2026-05-04 23:39 | -4.98230 | 105.84316 | 31761 ft | 499 kts | 331° |
| 2026-05-04 23:39 | -4.95210 | 105.82592 | 32038 ft | 501 kts | 331° |
| 2026-05-04 23:40 | -4.92172 | 105.80860 | 32254 ft | 503 kts | 331° |
| 2026-05-04 23:40 | -4.89121 | 105.79121 | 32514 ft | 505 kts | 331° |
| 2026-05-04 23:40 | -4.86063 | 105.77378 | 32828 ft | 505 kts | 331° |
| 2026-05-04 23:40 | -4.83010 | 105.75638 | 33186 ft | 503 kts | 331° |
| 2026-05-04 23:41 | -4.79975 | 105.73909 | 33547 ft | 502 kts | 332° |
| 2026-05-04 23:41 | -4.76935 | 105.72177 | 33881 ft | 502 kts | 332° |
| 2026-05-04 23:41 | -4.73905 | 105.70451 | 34175 ft | 501 kts | 332° |
| 2026-05-04 23:41 | -4.70875 | 105.68726 | 34496 ft | 500 kts | 332° |
| 2026-05-04 23:42 | -4.67857 | 105.67007 | 34783 ft | 499 kts | 332° |
| 2026-05-04 23:42 | -4.64845 | 105.65292 | 35083 ft | 498 kts | 332° |
| 2026-05-04 23:42 | -4.61833 | 105.63577 | 35400 ft | 497 kts | 332° |
| 2026-05-04 23:42 | -4.58828 | 105.61866 | 35721 ft | 496 kts | 332° |
| 2026-05-04 23:43 | -4.55828 | 105.60159 | 36047 ft | 495 kts | 332° |
| 2026-05-04 23:43 | -4.52842 | 105.58459 | 36368 ft | 494 kts | 332° |
| 2026-05-04 23:43 | -4.49857 | 105.56760 | 36691 ft | 493 kts | 332° |
| 2026-05-04 23:43 | -4.46915 | 105.55085 | 37014 ft | 492 kts | 332° |
| 2026-05-04 23:44 | -4.43908 | 105.53374 | 37346 ft | 491 kts | 332° |
| 2026-05-04 23:44 | -4.40939 | 105.51685 | 37646 ft | 490 kts | 332° |
| 2026-05-04 23:44 | -4.38017 | 105.50022 | 37949 ft | 490 kts | 332° |
| 2026-05-04 23:44 | -4.35053 | 105.48336 | 38245 ft | 489 kts | 332° |
| 2026-05-04 23:45 | -4.32099 | 105.46656 | 38537 ft | 488 kts | 332° |
| 2026-05-04 23:45 | -4.29141 | 105.44974 | 38787 ft | 488 kts | 332° |
| 2026-05-04 23:45 | -4.26198 | 105.43299 | 39042 ft | 487 kts | 332° |
| 2026-05-04 23:45 | -4.23259 | 105.41628 | 39312 ft | 485 kts | 332° |
| 2026-05-04 23:46 | -4.20323 | 105.39958 | 39593 ft | 483 kts | 332° |
| 2026-05-04 23:46 | -4.17403 | 105.38298 | 39812 ft | 483 kts | 332° |
| 2026-05-04 23:46 | -4.11529 | 105.34959 | 39889 ft | 485 kts | 332° |
| 2026-05-04 23:47 | -4.05686 | 105.31637 | 39894 ft | 481 kts | 332° |
| 2026-05-04 23:47 | -3.99866 | 105.28328 | 39898 ft | 480 kts | 332° |
| 2026-05-04 23:48 | -3.94070 | 105.25035 | 39895 ft | 479 kts | 332° |
| 2026-05-04 23:48 | -3.88263 | 105.21746 | 39898 ft | 479 kts | 332° |
| 2026-05-04 23:49 | -3.82449 | 105.18476 | 39895 ft | 480 kts | 332° |
| 2026-05-04 23:49 | -3.76609 | 105.15194 | 39898 ft | 481 kts | 332° |
| 2026-05-04 23:50 | -3.70777 | 105.11912 | 39897 ft | 481 kts | 332° |
| 2026-05-04 23:50 | -3.64978 | 105.08648 | 39895 ft | 481 kts | 332° |
| 2026-05-04 23:51 | -3.59142 | 105.05363 | 39889 ft | 481 kts | 332° |
| 2026-05-04 23:51 | -3.53313 | 105.02083 | 39891 ft | 480 kts | 332° |
| 2026-05-04 23:52 | -3.47490 | 104.98806 | 39891 ft | 480 kts | 332° |
| 2026-05-04 23:52 | -3.41669 | 104.95531 | 39887 ft | 480 kts | 332° |
| 2026-05-04 23:53 | -3.35847 | 104.92257 | 39884 ft | 479 kts | 332° |
| 2026-05-04 23:53 | -3.30029 | 104.88985 | 39886 ft | 479 kts | 332° |
| 2026-05-04 23:54 | -3.24208 | 104.85712 | 39881 ft | 479 kts | 332° |
| 2026-05-04 23:54 | -3.18397 | 104.82444 | 39881 ft | 480 kts | 332° |
| 2026-05-04 23:55 | -3.12578 | 104.79173 | 39881 ft | 480 kts | 332° |
| 2026-05-04 23:56 | -3.03847 | 104.74265 | 39883 ft | 480 kts | 332° |
| 2026-05-04 23:56 | -2.98026 | 104.70992 | 39888 ft | 480 kts | 332° |
| 2026-05-04 23:57 | -2.92207 | 104.67724 | 39883 ft | 479 kts | 333° |
| 2026-05-04 23:57 | -2.86095 | 104.65127 | 39889 ft | 477 kts | 343° |
| 2026-05-04 23:58 | -2.79642 | 104.63631 | 39877 ft | 475 kts | 351° |
| 2026-05-04 23:58 | -2.73140 | 104.62455 | 39882 ft | 475 kts | 351° |
| 2026-05-04 23:59 | -2.66630 | 104.61274 | 39878 ft | 475 kts | 351° |
| 2026-05-04 23:59 | -2.60164 | 104.60069 | 39879 ft | 475 kts | 350° |
| 2026-05-05 00:00 | -2.53664 | 104.58842 | 39883 ft | 475 kts | 350° |
| 2026-05-05 00:00 | -2.47154 | 104.57611 | 39883 ft | 475 kts | 350° |
| 2026-05-05 00:01 | -2.40654 | 104.56383 | 39883 ft | 475 kts | 350° |
| 2026-05-05 00:01 | -2.34155 | 104.55156 | 39884 ft | 475 kts | 350° |
| 2026-05-05 00:02 | -2.27657 | 104.53930 | 39889 ft | 475 kts | 350° |
| 2026-05-05 00:02 | -2.21160 | 104.52704 | 39889 ft | 475 kts | 350° |
| 2026-05-05 00:03 | -2.14661 | 104.51478 | 39894 ft | 475 kts | 350° |
| 2026-05-05 00:03 | -2.08164 | 104.50253 | 39899 ft | 475 kts | 350° |
| 2026-05-05 00:04 | -2.01661 | 104.49026 | 39895 ft | 475 kts | 350° |
| 2026-05-05 00:04 | -1.95196 | 104.47807 | 39898 ft | 476 kts | 350° |
| 2026-05-05 00:05 | -1.88688 | 104.46579 | 39896 ft | 476 kts | 350° |
| 2026-05-05 00:05 | -1.82174 | 104.45351 | 39914 ft | 476 kts | 350° |
| 2026-05-05 00:06 | -1.75660 | 104.44122 | 39908 ft | 477 kts | 350° |
| 2026-05-05 00:06 | -1.69135 | 104.42892 | 39906 ft | 477 kts | 350° |
| 2026-05-05 00:07 | -1.62609 | 104.41662 | 39901 ft | 478 kts | 350° |
| 2026-05-05 00:07 | -1.56079 | 104.40430 | 39906 ft | 478 kts | 350° |
| 2026-05-05 00:08 | -1.49540 | 104.39198 | 39902 ft | 478 kts | 350° |
| 2026-05-05 00:08 | -1.43006 | 104.37966 | 39905 ft | 478 kts | 350° |
| 2026-05-05 00:09 | -1.36461 | 104.36732 | 39911 ft | 478 kts | 350° |
| 2026-05-05 00:09 | -1.29922 | 104.35500 | 39907 ft | 478 kts | 350° |
| 2026-05-05 00:10 | -1.23380 | 104.34267 | 39906 ft | 478 kts | 350° |
| 2026-05-05 00:10 | -1.16870 | 104.33040 | 39907 ft | 478 kts | 350° |
| 2026-05-05 00:11 | -1.10336 | 104.31808 | 39909 ft | 478 kts | 350° |
| 2026-05-05 00:11 | -1.03789 | 104.30574 | 39907 ft | 478 kts | 350° |
| 2026-05-05 00:12 | -0.97244 | 104.29341 | 39898 ft | 479 kts | 350° |
| 2026-05-05 00:12 | -0.90700 | 104.28108 | 39901 ft | 479 kts | 350° |
| 2026-05-05 00:13 | -0.84157 | 104.26875 | 39905 ft | 479 kts | 350° |
| 2026-05-05 00:13 | -0.77602 | 104.25640 | 39900 ft | 479 kts | 350° |
| 2026-05-05 00:14 | -0.71050 | 104.24405 | 39899 ft | 479 kts | 350° |
| 2026-05-05 00:14 | -0.64501 | 104.23171 | 39901 ft | 479 kts | 350° |
| 2026-05-05 00:15 | -0.57944 | 104.21935 | 39900 ft | 479 kts | 350° |
| 2026-05-05 00:15 | -0.51393 | 104.20668 | 39902 ft | 479 kts | 349° |
| 2026-05-05 00:16 | -0.44851 | 104.19358 | 39903 ft | 480 kts | 349° |
| 2026-05-05 00:16 | -0.38307 | 104.18047 | 39899 ft | 480 kts | 349° |
| 2026-05-05 00:17 | -0.31760 | 104.16743 | 39901 ft | 480 kts | 349° |
| 2026-05-05 00:17 | -0.25208 | 104.15440 | 39901 ft | 479 kts | 349° |
| 2026-05-05 00:18 | -0.18669 | 104.14141 | 39896 ft | 479 kts | 349° |
| 2026-05-05 00:18 | -0.13238 | 104.13061 | 39895 ft | 478 kts | 349° |
| 2026-05-05 00:19 | -0.06717 | 104.11765 | 39913 ft | 478 kts | 349° |
| 2026-05-05 00:19 | -0.00198 | 104.10469 | 39899 ft | 477 kts | 349° |
| 2026-05-05 00:20 | 0.07406 | 104.08957 | 39900 ft | 476 kts | 349° |
| 2026-05-05 00:20 | 0.12810 | 104.07882 | 39906 ft | 476 kts | 349° |
| 2026-05-05 00:21 | 0.19299 | 104.06592 | 39900 ft | 476 kts | 349° |
| 2026-05-05 00:21 | 0.25791 | 104.05301 | 39897 ft | 476 kts | 349° |
| 2026-05-05 00:22 | 0.32296 | 104.04015 | 39893 ft | 476 kts | 349° |
| 2026-05-05 00:22 | 0.38789 | 104.02742 | 39897 ft | 475 kts | 349° |
| 2026-05-05 00:23 | 0.45281 | 104.01467 | 39903 ft | 475 kts | 349° |
| 2026-05-05 00:23 | 0.51769 | 104.00191 | 39897 ft | 475 kts | 349° |
| 2026-05-05 00:24 | 0.58262 | 103.98913 | 39894 ft | 476 kts | 349° |
| 2026-05-05 00:24 | 0.64750 | 103.97613 | 39897 ft | 476 kts | 349° |
| 2026-05-05 00:25 | 0.71243 | 103.96312 | 39906 ft | 476 kts | 349° |
| 2026-05-05 00:25 | 0.77733 | 103.94973 | 39908 ft | 476 kts | 348° |
| 2026-05-05 00:26 | 0.84166 | 103.93586 | 39906 ft | 476 kts | 348° |
| 2026-05-05 00:26 | 0.90641 | 103.92197 | 39891 ft | 476 kts | 348° |
| 2026-05-05 00:27 | 0.97103 | 103.90820 | 39892 ft | 476 kts | 348° |
| 2026-05-05 00:27 | 1.03600 | 103.89446 | 39887 ft | 476 kts | 349° |
| 2026-05-05 00:28 | 1.10084 | 103.88089 | 39896 ft | 476 kts | 349° |
| 2026-05-05 00:28 | 1.16560 | 103.86730 | 39910 ft | 476 kts | 349° |
| 2026-05-05 00:29 | 1.23095 | 103.85854 | 39918 ft | 473 kts | 2° |
| 2026-05-05 00:29 | 1.29552 | 103.86944 | 39896 ft | 472 kts | 23° |
| 2026-05-05 00:29 | 1.32361 | 103.88583 | 39925 ft | 468 kts | 36° |
| 2026-05-05 00:30 | 1.35079 | 103.90394 | 39898 ft | 469 kts | 29° |
| 2026-05-05 00:30 | 1.41160 | 103.92702 | 39894 ft | 471 kts | 10° |
| 2026-05-05 00:31 | 1.47719 | 103.93064 | 39894 ft | 474 kts | 357° |
| 2026-05-05 00:31 | 1.54318 | 103.92586 | 39894 ft | 476 kts | 357° |
| 2026-05-05 00:32 | 1.60936 | 103.92174 | 39895 ft | 477 kts | 357° |
| 2026-05-05 00:32 | 1.67565 | 103.91737 | 39902 ft | 477 kts | 357° |
| 2026-05-05 00:33 | 1.74191 | 103.91293 | 39897 ft | 477 kts | 357° |
| 2026-05-05 00:33 | 1.80771 | 103.91299 | 39905 ft | 475 kts | 3° |
| 2026-05-05 00:34 | 1.87378 | 103.91557 | 39904 ft | 475 kts | 3° |
| 2026-05-05 00:34 | 1.93984 | 103.91593 | 39907 ft | 475 kts | 356° |
| 2026-05-05 00:35 | 2.00570 | 103.90957 | 39903 ft | 475 kts | 355° |
| 2026-05-05 00:35 | 2.07151 | 103.90269 | 39901 ft | 475 kts | 355° |
| 2026-05-05 00:36 | 2.13726 | 103.89619 | 39896 ft | 475 kts | 355° |
| 2026-05-05 00:36 | 2.20318 | 103.88984 | 39890 ft | 476 kts | 355° |
| 2026-05-05 00:37 | 2.26911 | 103.88349 | 39887 ft | 476 kts | 355° |
| 2026-05-05 00:37 | 2.33507 | 103.87712 | 39888 ft | 476 kts | 355° |
| 2026-05-05 00:38 | 2.40002 | 103.86394 | 39891 ft | 478 kts | 344° |
| 2026-05-05 00:38 | 2.46195 | 103.83940 | 39886 ft | 480 kts | 336° |
| 2026-05-05 00:39 | 2.52243 | 103.81102 | 39889 ft | 480 kts | 336° |
| 2026-05-05 00:39 | 2.58265 | 103.78302 | 39894 ft | 480 kts | 336° |
| 2026-05-05 00:40 | 2.64351 | 103.75517 | 39899 ft | 481 kts | 336° |
| 2026-05-05 00:40 | 2.70431 | 103.72740 | 39902 ft | 481 kts | 336° |
| 2026-05-05 00:41 | 2.76528 | 103.69976 | 39904 ft | 480 kts | 337° |
| 2026-05-05 00:41 | 2.82636 | 103.67263 | 39905 ft | 480 kts | 337° |
| 2026-05-05 00:42 | 2.88747 | 103.64539 | 39904 ft | 481 kts | 337° |
| 2026-05-05 00:42 | 2.94852 | 103.61814 | 39900 ft | 481 kts | 337° |
| 2026-05-05 00:43 | 3.00978 | 103.59082 | 39896 ft | 481 kts | 337° |
| 2026-05-05 00:43 | 3.07055 | 103.56371 | 39894 ft | 481 kts | 337° |
| 2026-05-05 00:44 | 3.13164 | 103.53644 | 39894 ft | 481 kts | 337° |
| 2026-05-05 00:44 | 3.19284 | 103.50904 | 39890 ft | 481 kts | 337° |
| 2026-05-05 00:45 | 3.25390 | 103.48149 | 39887 ft | 482 kts | 337° |
| 2026-05-05 00:45 | 3.31502 | 103.45391 | 39888 ft | 482 kts | 337° |
| 2026-05-05 00:46 | 3.37616 | 103.42635 | 39883 ft | 482 kts | 337° |
| 2026-05-05 00:46 | 3.43776 | 103.40005 | 39884 ft | 482 kts | 340° |
| 2026-05-05 00:47 | 3.50026 | 103.37572 | 39883 ft | 482 kts | 340° |
| 2026-05-05 00:47 | 3.56279 | 103.35142 | 39881 ft | 482 kts | 340° |
| 2026-05-05 00:48 | 3.62525 | 103.32676 | 39884 ft | 482 kts | 340° |
| 2026-05-05 00:48 | 3.68767 | 103.30193 | 39885 ft | 482 kts | 339° |
| 2026-05-05 00:49 | 3.75004 | 103.27709 | 39885 ft | 482 kts | 339° |
| 2026-05-05 00:49 | 3.81240 | 103.25226 | 39888 ft | 482 kts | 339° |
| 2026-05-05 00:50 | 3.87472 | 103.22746 | 39882 ft | 482 kts | 339° |
| 2026-05-05 00:50 | 3.93658 | 103.20284 | 39883 ft | 482 kts | 339° |
| 2026-05-05 00:51 | 3.99881 | 103.17808 | 39877 ft | 481 kts | 339° |
| 2026-05-05 00:51 | 4.06147 | 103.15313 | 39886 ft | 481 kts | 339° |
| 2026-05-05 00:52 | 4.12333 | 103.12849 | 39886 ft | 481 kts | 339° |
| 2026-05-05 00:52 | 4.18547 | 103.10375 | 39890 ft | 481 kts | 339° |
| 2026-05-05 00:53 | 4.24767 | 103.07897 | 39892 ft | 481 kts | 339° |
| 2026-05-05 00:53 | 4.30974 | 103.05424 | 39892 ft | 480 kts | 339° |
| 2026-05-05 00:54 | 4.37185 | 103.02950 | 39896 ft | 480 kts | 339° |
| 2026-05-05 00:54 | 4.43390 | 103.00477 | 39904 ft | 479 kts | 339° |
| 2026-05-05 00:55 | 4.49585 | 102.98007 | 39903 ft | 479 kts | 339° |
| 2026-05-05 00:55 | 4.55783 | 102.95536 | 39905 ft | 479 kts | 339° |
| 2026-05-05 00:56 | 4.61975 | 102.93067 | 39908 ft | 479 kts | 339° |
| 2026-05-05 00:56 | 4.68167 | 102.90597 | 39906 ft | 478 kts | 339° |
| 2026-05-05 00:57 | 4.74351 | 102.88130 | 39904 ft | 479 kts | 339° |
| 2026-05-05 00:57 | 4.80544 | 102.85658 | 39909 ft | 479 kts | 339° |
| 2026-05-05 00:58 | 4.86732 | 102.83189 | 39906 ft | 479 kts | 339° |
| 2026-05-05 00:58 | 4.92933 | 102.80727 | 39911 ft | 479 kts | 339° |
| 2026-05-05 00:59 | 4.99133 | 102.78274 | 39910 ft | 479 kts | 339° |
| 2026-05-05 00:59 | 5.05301 | 102.75830 | 39906 ft | 480 kts | 339° |
| 2026-05-05 01:00 | 5.11502 | 102.73371 | 39908 ft | 480 kts | 339° |
| 2026-05-05 01:00 | 5.17715 | 102.70906 | 39905 ft | 480 kts | 339° |
| 2026-05-05 01:01 | 5.23915 | 102.68430 | 39907 ft | 479 kts | 339° |
| 2026-05-05 01:01 | 5.30093 | 102.65912 | 39906 ft | 479 kts | 339° |
| 2026-05-05 01:02 | 5.36270 | 102.63408 | 39906 ft | 479 kts | 339° |
| 2026-05-05 01:02 | 5.42471 | 102.60949 | 39911 ft | 479 kts | 339° |
| 2026-05-05 01:03 | 5.47621 | 102.58913 | 39912 ft | 479 kts | 339° |
| 2026-05-05 01:03 | 5.53811 | 102.56457 | 39907 ft | 478 kts | 339° |
| 2026-05-05 01:04 | 5.61040 | 102.53569 | 39914 ft | 478 kts | 339° |
| 2026-05-05 01:04 | 5.69256 | 102.50273 | 39911 ft | 478 kts | 339° |
| 2026-05-05 01:05 | 5.75428 | 102.47798 | 39905 ft | 478 kts | 339° |
| 2026-05-05 01:05 | 5.81617 | 102.45317 | 39910 ft | 478 kts | 339° |
| 2026-05-05 01:06 | 5.87792 | 102.42841 | 39905 ft | 478 kts | 339° |
| 2026-05-05 01:06 | 5.93985 | 102.40357 | 39898 ft | 479 kts | 339° |
| 2026-05-05 01:07 | 6.00166 | 102.37877 | 39888 ft | 479 kts | 339° |
| 2026-05-05 01:07 | 6.06357 | 102.35392 | 39884 ft | 479 kts | 339° |
| 2026-05-05 01:08 | 6.12541 | 102.32911 | 39882 ft | 478 kts | 340° |
| 2026-05-05 01:08 | 6.18904 | 102.31031 | 39882 ft | 477 kts | 350° |
| 2026-05-05 01:09 | 6.25437 | 102.30203 | 39885 ft | 476 kts | 354° |
| 2026-05-05 01:09 | 6.32014 | 102.29424 | 39889 ft | 476 kts | 354° |
| 2026-05-05 01:10 | 6.38591 | 102.28654 | 39888 ft | 476 kts | 354° |
| 2026-05-05 01:10 | 6.45178 | 102.27901 | 39890 ft | 476 kts | 354° |
| 2026-05-05 01:11 | 6.51764 | 102.27147 | 39895 ft | 476 kts | 354° |
| 2026-05-05 01:11 | 6.58349 | 102.26388 | 39900 ft | 476 kts | 354° |
| 2026-05-05 01:12 | 6.64936 | 102.25627 | 39900 ft | 476 kts | 354° |
| 2026-05-05 01:12 | 6.71520 | 102.24867 | 39905 ft | 476 kts | 354° |
| 2026-05-05 01:13 | 6.78098 | 102.24106 | 39908 ft | 476 kts | 354° |
| 2026-05-05 01:13 | 6.84678 | 102.23346 | 39907 ft | 476 kts | 354° |
| 2026-05-05 01:14 | 6.91252 | 102.22585 | 39907 ft | 475 kts | 354° |
| 2026-05-05 01:14 | 6.97824 | 102.21825 | 39908 ft | 475 kts | 354° |
| 2026-05-05 01:15 | 7.04389 | 102.21066 | 39907 ft | 475 kts | 354° |
| 2026-05-05 01:15 | 7.10956 | 102.20306 | 39906 ft | 475 kts | 354° |
| 2026-05-05 01:16 | 7.17517 | 102.19547 | 39908 ft | 475 kts | 354° |
| 2026-05-05 01:16 | 7.24084 | 102.18787 | 39908 ft | 475 kts | 354° |
| 2026-05-05 01:17 | 7.30637 | 102.18028 | 39907 ft | 474 kts | 354° |
| 2026-05-05 01:17 | 7.37191 | 102.17268 | 39907 ft | 474 kts | 354° |
| 2026-05-05 01:18 | 7.43742 | 102.16509 | 39910 ft | 473 kts | 354° |
| 2026-05-05 01:18 | 7.50252 | 102.15755 | 39904 ft | 473 kts | 354° |
| 2026-05-05 01:19 | 7.56790 | 102.14997 | 39903 ft | 473 kts | 354° |
| 2026-05-05 01:19 | 7.63334 | 102.14237 | 39900 ft | 473 kts | 354° |
| 2026-05-05 01:20 | 7.69868 | 102.13478 | 39902 ft | 472 kts | 354° |
| 2026-05-05 01:20 | 7.76384 | 102.12722 | 39903 ft | 471 kts | 354° |
| 2026-05-05 01:21 | 7.82899 | 102.11966 | 39901 ft | 470 kts | 354° |
| 2026-05-05 01:21 | 7.89403 | 102.11211 | 39902 ft | 470 kts | 354° |
| 2026-05-05 01:22 | 7.95897 | 102.10456 | 39902 ft | 470 kts | 354° |
| 2026-05-05 01:22 | 8.02400 | 102.09700 | 39906 ft | 470 kts | 354° |
| 2026-05-05 01:23 | 8.08913 | 102.09069 | 39904 ft | 470 kts | 356° |
| 2026-05-05 01:23 | 8.15430 | 102.08527 | 39906 ft | 470 kts | 356° |
| 2026-05-05 01:24 | 8.21914 | 102.07980 | 39903 ft | 470 kts | 356° |
| 2026-05-05 01:24 | 8.28435 | 102.07412 | 39904 ft | 470 kts | 356° |
| 2026-05-05 01:25 | 8.34956 | 102.06836 | 39908 ft | 470 kts | 356° |
| 2026-05-05 01:25 | 8.41477 | 102.06260 | 39905 ft | 470 kts | 356° |
| 2026-05-05 01:26 | 8.48000 | 102.05685 | 39904 ft | 470 kts | 356° |
| 2026-05-05 01:26 | 8.54519 | 102.05110 | 39904 ft | 470 kts | 356° |
| 2026-05-05 01:27 | 8.61026 | 102.04536 | 39909 ft | 469 kts | 356° |
| 2026-05-05 01:27 | 8.67537 | 102.03961 | 39907 ft | 469 kts | 356° |
| 2026-05-05 01:28 | 8.74036 | 102.03388 | 39904 ft | 469 kts | 356° |
| 2026-05-05 01:28 | 8.80552 | 102.02812 | 39903 ft | 469 kts | 356° |
| 2026-05-05 01:29 | 8.87057 | 102.02237 | 39906 ft | 469 kts | 355° |
| 2026-05-05 01:29 | 8.93562 | 102.01663 | 39909 ft | 469 kts | 355° |
| 2026-05-05 01:30 | 9.00026 | 102.01091 | 39910 ft | 469 kts | 355° |
| 2026-05-05 01:30 | 9.06534 | 102.00516 | 39909 ft | 469 kts | 355° |
| 2026-05-05 01:31 | 9.13026 | 101.99941 | 39911 ft | 468 kts | 355° |
| 2026-05-05 01:31 | 9.19518 | 101.99366 | 39912 ft | 468 kts | 355° |
| 2026-05-05 01:32 | 9.26005 | 101.98792 | 39908 ft | 468 kts | 355° |
| 2026-05-05 01:32 | 9.32488 | 101.98220 | 39909 ft | 468 kts | 355° |
| 2026-05-05 01:33 | 9.38967 | 101.97655 | 39911 ft | 467 kts | 355° |
| 2026-05-05 01:33 | 9.45445 | 101.97091 | 39913 ft | 467 kts | 355° |
| 2026-05-05 01:34 | 9.51925 | 101.96526 | 39913 ft | 467 kts | 355° |
| 2026-05-05 01:34 | 9.58396 | 101.95960 | 39913 ft | 467 kts | 355° |
| 2026-05-05 01:35 | 9.64880 | 101.95393 | 39914 ft | 468 kts | 355° |
| 2026-05-05 01:35 | 9.71373 | 101.94826 | 39916 ft | 468 kts | 355° |
| 2026-05-05 01:36 | 9.77871 | 101.94257 | 39914 ft | 468 kts | 355° |
| 2026-05-05 01:36 | 9.84364 | 101.93689 | 39916 ft | 468 kts | 355° |
| 2026-05-05 01:37 | 9.90857 | 101.93120 | 39915 ft | 468 kts | 355° |
| 2026-05-05 01:37 | 9.97310 | 101.92555 | 39918 ft | 468 kts | 355° |
| 2026-05-05 01:38 | 10.03799 | 101.91987 | 39915 ft | 468 kts | 355° |
| 2026-05-05 01:38 | 10.10300 | 101.91417 | 39916 ft | 469 kts | 354° |
| 2026-05-05 01:39 | 10.16807 | 101.90846 | 39918 ft | 469 kts | 354° |
| 2026-05-05 01:39 | 10.23306 | 101.90276 | 39917 ft | 469 kts | 354° |
| 2026-05-05 01:40 | 10.29797 | 101.89706 | 39920 ft | 469 kts | 354° |
| 2026-05-05 01:40 | 10.36305 | 101.89135 | 39922 ft | 469 kts | 354° |
| 2026-05-05 01:41 | 10.42817 | 101.88563 | 39921 ft | 469 kts | 354° |
| 2026-05-05 01:41 | 10.49327 | 101.87991 | 39919 ft | 470 kts | 354° |
| 2026-05-05 01:42 | 10.55835 | 101.87419 | 39926 ft | 470 kts | 354° |
| 2026-05-05 01:42 | 10.62318 | 101.86848 | 39922 ft | 471 kts | 354° |
| 2026-05-05 01:43 | 10.68848 | 101.86274 | 39924 ft | 471 kts | 354° |
| 2026-05-05 01:43 | 10.75384 | 101.85689 | 39925 ft | 471 kts | 353° |
| 2026-05-05 01:44 | 10.81828 | 101.84486 | 39927 ft | 471 kts | 347° |
| 2026-05-05 01:44 | 10.88226 | 101.82980 | 39928 ft | 472 kts | 346° |
| 2026-05-05 01:45 | 10.94626 | 101.81476 | 39929 ft | 472 kts | 346° |
| 2026-05-05 01:45 | 11.01038 | 101.79997 | 39930 ft | 473 kts | 347° |
| 2026-05-05 01:46 | 11.07458 | 101.78529 | 39931 ft | 473 kts | 347° |
| 2026-05-05 01:46 | 11.13887 | 101.77062 | 39928 ft | 473 kts | 347° |
| 2026-05-05 01:47 | 11.20318 | 101.75591 | 39929 ft | 474 kts | 346° |
| 2026-05-05 01:47 | 11.26752 | 101.74119 | 39928 ft | 474 kts | 346° |
| 2026-05-05 01:48 | 11.32105 | 101.72893 | 39931 ft | 474 kts | 346° |
| 2026-05-05 01:48 | 11.39634 | 101.71168 | 39932 ft | 474 kts | 346° |
| 2026-05-05 01:49 | 11.44987 | 101.69942 | 39931 ft | 475 kts | 346° |
| 2026-05-05 01:49 | 11.51431 | 101.68464 | 39932 ft | 475 kts | 346° |
| 2026-05-05 01:50 | 11.57886 | 101.66983 | 39933 ft | 475 kts | 346° |
| 2026-05-05 01:50 | 11.64334 | 101.65504 | 39933 ft | 475 kts | 346° |
| 2026-05-05 01:51 | 11.70785 | 101.64023 | 39935 ft | 475 kts | 346° |
| 2026-05-05 01:51 | 11.77229 | 101.62542 | 39933 ft | 475 kts | 346° |
| 2026-05-05 01:52 | 11.83684 | 101.61059 | 39933 ft | 475 kts | 346° |
| 2026-05-05 01:52 | 11.90126 | 101.59578 | 39934 ft | 475 kts | 346° |
| 2026-05-05 01:53 | 11.96571 | 101.58095 | 39935 ft | 474 kts | 346° |
| 2026-05-05 01:53 | 12.03006 | 101.56614 | 39934 ft | 474 kts | 346° |
| 2026-05-05 01:54 | 12.09440 | 101.55132 | 39934 ft | 474 kts | 346° |
| 2026-05-05 01:54 | 12.15875 | 101.53650 | 39933 ft | 474 kts | 346° |
| 2026-05-05 01:55 | 12.22302 | 101.52168 | 39930 ft | 473 kts | 346° |
| 2026-05-05 01:55 | 12.28734 | 101.50685 | 39928 ft | 473 kts | 346° |
| 2026-05-05 01:56 | 12.35169 | 101.49200 | 39557 ft | 478 kts | 345° |
| 2026-05-05 01:56 | 12.38425 | 101.48447 | 38905 ft | 481 kts | 346° |
| 2026-05-05 01:56 | 12.41649 | 101.47703 | 38200 ft | 481 kts | 345° |
| 2026-05-05 01:57 | 12.44955 | 101.46940 | 37421 ft | 481 kts | 346° |
| 2026-05-05 01:57 | 12.48221 | 101.46185 | 36623 ft | 483 kts | 346° |
| 2026-05-05 01:57 | 12.51499 | 101.45428 | 35865 ft | 484 kts | 346° |
| 2026-05-05 01:57 | 12.54751 | 101.44676 | 35051 ft | 486 kts | 346° |
| 2026-05-05 01:58 | 12.58068 | 101.43909 | 34144 ft | 490 kts | 346° |
| 2026-05-05 01:58 | 12.61396 | 101.43105 | 33302 ft | 490 kts | 343° |
| 2026-05-05 01:58 | 12.64652 | 101.42153 | 32629 ft | 486 kts | 342° |
| 2026-05-05 01:58 | 12.67882 | 101.41152 | 31994 ft | 483 kts | 341° |
| 2026-05-05 01:59 | 12.71083 | 101.40139 | 31373 ft | 480 kts | 341° |
| 2026-05-05 01:59 | 12.74262 | 101.39131 | 30752 ft | 477 kts | 342° |
| 2026-05-05 01:59 | 12.77426 | 101.38133 | 30128 ft | 475 kts | 342° |
| 2026-05-05 01:59 | 12.80582 | 101.37145 | 29419 ft | 472 kts | 342° |
| 2026-05-05 02:00 | 12.83712 | 101.36171 | 28681 ft | 468 kts | 342° |
| 2026-05-05 02:00 | 12.86814 | 101.35209 | 27997 ft | 463 kts | 342° |
| 2026-05-05 02:00 | 12.89887 | 101.34257 | 27334 ft | 459 kts | 342° |
| 2026-05-05 02:00 | 12.92927 | 101.33315 | 26678 ft | 454 kts | 342° |
| 2026-05-05 02:01 | 12.95940 | 101.32381 | 26024 ft | 450 kts | 342° |
| 2026-05-05 02:01 | 12.98926 | 101.31454 | 25375 ft | 447 kts | 342° |
| 2026-05-05 02:01 | 13.01894 | 101.30533 | 24733 ft | 444 kts | 342° |
| 2026-05-05 02:01 | 13.04841 | 101.29617 | 24089 ft | 442 kts | 342° |
| 2026-05-05 02:02 | 13.07779 | 101.28704 | 23446 ft | 439 kts | 342° |
| 2026-05-05 02:02 | 13.10694 | 101.27798 | 22714 ft | 436 kts | 342° |
| 2026-05-05 02:02 | 13.13586 | 101.26899 | 22064 ft | 432 kts | 342° |
| 2026-05-05 02:02 | 13.16444 | 101.26010 | 21429 ft | 427 kts | 342° |
| 2026-05-05 02:03 | 13.19277 | 101.25129 | 20812 ft | 423 kts | 343° |
| 2026-05-05 02:03 | 13.22085 | 101.24256 | 20197 ft | 419 kts | 343° |
| 2026-05-05 02:03 | 13.24860 | 101.23392 | 19616 ft | 416 kts | 343° |
| 2026-05-05 02:03 | 13.27618 | 101.22533 | 19020 ft | 413 kts | 343° |
| 2026-05-05 02:04 | 13.30362 | 101.21679 | 18439 ft | 408 kts | 342° |
| 2026-05-05 02:04 | 13.32876 | 101.20462 | 18073 ft | 394 kts | 324° |
| 2026-05-05 02:04 | 13.34801 | 101.18538 | 17833 ft | 383 kts | 308° |
| 2026-05-05 02:04 | 13.36153 | 101.16250 | 17469 ft | 377 kts | 294° |
| 2026-05-05 02:05 | 13.36894 | 101.13711 | 17126 ft | 368 kts | 282° |
| 2026-05-05 02:05 | 13.37407 | 101.11141 | 16795 ft | 367 kts | 282° |
| 2026-05-05 02:05 | 13.37904 | 101.08571 | 16469 ft | 368 kts | 282° |
| 2026-05-05 02:05 | 13.38413 | 101.05989 | 16127 ft | 369 kts | 282° |
| 2026-05-05 02:06 | 13.38936 | 101.03406 | 15796 ft | 367 kts | 282° |
| 2026-05-05 02:06 | 13.39465 | 101.00846 | 15462 ft | 365 kts | 282° |
| 2026-05-05 02:06 | 13.39998 | 100.98293 | 15131 ft | 364 kts | 283° |
| 2026-05-05 02:06 | 13.40397 | 100.96389 | 14882 ft | 363 kts | 283° |
| 2026-05-05 02:07 | 13.40927 | 100.93861 | 14559 ft | 361 kts | 282° |
| 2026-05-05 02:07 | 13.41570 | 100.91401 | 14221 ft | 354 kts | 294° |
| 2026-05-05 02:07 | 13.42862 | 100.89283 | 13912 ft | 351 kts | 312° |
| 2026-05-05 02:07 | 13.44697 | 100.87645 | 13557 ft | 349 kts | 328° |
| 2026-05-05 02:08 | 13.46759 | 100.86345 | 13232 ft | 347 kts | 329° |
| 2026-05-05 02:08 | 13.48817 | 100.85048 | 12899 ft | 347 kts | 329° |
| 2026-05-05 02:08 | 13.50857 | 100.83730 | 12581 ft | 346 kts | 328° |
| 2026-05-05 02:08 | 13.52887 | 100.82411 | 12239 ft | 342 kts | 330° |
| 2026-05-05 02:09 | 13.55065 | 100.81526 | 11934 ft | 337 kts | 351° |
| 2026-05-05 02:09 | 13.57391 | 100.81479 | 11643 ft | 335 kts | 10° |
| 2026-05-05 02:09 | 13.59647 | 100.82059 | 11395 ft | 333 kts | 17° |
| 2026-05-05 02:09 | 13.61871 | 100.82708 | 11112 ft | 334 kts | 17° |
| 2026-05-05 02:10 | 13.64082 | 100.83342 | 10865 ft | 330 kts | 16° |
| 2026-05-05 02:10 | 13.66282 | 100.83955 | 10563 ft | 324 kts | 16° |
| 2026-05-05 02:10 | 13.68436 | 100.84547 | 10277 ft | 318 kts | 16° |
| 2026-05-05 02:10 | 13.70555 | 100.85129 | 10026 ft | 312 kts | 16° |
| 2026-05-05 02:11 | 13.72613 | 100.85693 | 9895 ft | 301 kts | 16° |
| 2026-05-05 02:11 | 13.74608 | 100.86240 | 9744 ft | 292 kts | 16° |
| 2026-05-05 02:11 | 13.76578 | 100.86781 | 9290 ft | 294 kts | 16° |
| 2026-05-05 02:11 | 13.78546 | 100.87321 | 8991 ft | 290 kts | 16° |
| 2026-05-05 02:12 | 13.80480 | 100.87851 | 8731 ft | 286 kts | 16° |
| 2026-05-05 02:12 | 13.84267 | 100.88889 | 8225 ft | 277 kts | 17° |
| 2026-05-05 02:12 | 13.86116 | 100.89395 | 8017 ft | 274 kts | 17° |
| 2026-05-05 02:13 | 13.87955 | 100.89899 | 7776 ft | 274 kts | 17° |
| 2026-05-05 02:13 | 13.89800 | 100.90405 | 7549 ft | 274 kts | 17° |
| 2026-05-05 02:13 | 13.91642 | 100.90909 | 7321 ft | 274 kts | 17° |
| 2026-05-05 02:13 | 13.93482 | 100.91415 | 7091 ft | 274 kts | 17° |
| 2026-05-05 02:14 | 13.95326 | 100.91922 | 6850 ft | 274 kts | 17° |
| 2026-05-05 02:14 | 13.97141 | 100.92420 | 6630 ft | 273 kts | 17° |
| 2026-05-05 02:14 | 13.98975 | 100.92923 | 6392 ft | 273 kts | 17° |
| 2026-05-05 02:14 | 14.00819 | 100.93279 | 6130 ft | 269 kts | 360° |
| 2026-05-05 02:15 | 14.02608 | 100.92777 | 5934 ft | 271 kts | 331° |
| 2026-05-05 02:15 | 14.04001 | 100.91481 | 5741 ft | 270 kts | 304° |
| 2026-05-05 02:15 | 14.04704 | 100.89740 | 5604 ft | 263 kts | 278° |
| 2026-05-05 02:15 | 14.04614 | 100.87901 | 5464 ft | 253 kts | 252° |
| 2026-05-05 02:16 | 14.03835 | 100.86299 | 5152 ft | 253 kts | 231° |
| 2026-05-05 02:16 | 14.02559 | 100.85093 | 4846 ft | 246 kts | 208° |
| 2026-05-05 02:16 | 14.01012 | 100.84400 | 4665 ft | 240 kts | 194° |
| 2026-05-05 02:16 | 13.99399 | 100.83986 | 4445 ft | 240 kts | 190° |
| 2026-05-05 02:17 | 13.97768 | 100.83619 | 4213 ft | 240 kts | 191° |
| 2026-05-05 02:17 | 13.96146 | 100.83222 | 4112 ft | 238 kts | 192° |
| 2026-05-05 02:17 | 13.94541 | 100.82808 | 4064 ft | 238 kts | 192° |
| 2026-05-05 02:17 | 13.92929 | 100.82384 | 4022 ft | 238 kts | 192° |
| 2026-05-05 02:18 | 13.91356 | 100.81968 | 4011 ft | 226 kts | 192° |
| 2026-05-05 02:18 | 13.89880 | 100.81575 | 3993 ft | 213 kts | 192° |
| 2026-05-05 02:18 | 13.88438 | 100.81195 | 3746 ft | 214 kts | 192° |
| 2026-05-05 02:18 | 13.87004 | 100.80816 | 3469 ft | 214 kts | 192° |
| 2026-05-05 02:19 | 13.85567 | 100.80436 | 3198 ft | 213 kts | 193° |
| 2026-05-05 02:19 | 13.84125 | 100.80055 | 2920 ft | 213 kts | 193° |
| 2026-05-05 02:19 | 13.82695 | 100.79676 | 2652 ft | 211 kts | 193° |
| 2026-05-05 02:19 | 13.81279 | 100.79301 | 2383 ft | 210 kts | 193° |
| 2026-05-05 02:20 | 13.79880 | 100.78931 | 2137 ft | 201 kts | 193° |
| 2026-05-05 02:20 | 13.78579 | 100.78587 | 1845 ft | 186 kts | 194° |
| 2026-05-05 02:20 | 13.77382 | 100.78271 | 1650 ft | 170 kts | 194° |
| 2026-05-05 02:20 | 13.76292 | 100.77983 | 1428 ft | 151 kts | 194° |
| 2026-05-05 02:21 | 13.75334 | 100.77730 | 1236 ft | 138 kts | 194° |
| 2026-05-05 02:21 | 13.74724 | 100.77569 | 1121 ft | 138 kts | 194° |
| 2026-05-05 02:21 | 13.73923 | 100.77357 | 987 ft | 141 kts | 194° |
| 2026-05-05 02:22 | 13.73708 | 100.77300 | 949 ft | 142 kts | 194° |
| 2026-05-05 02:22 | 13.73531 | 100.77253 | 913 ft | 142 kts | 194° |
| 2026-05-05 02:22 | 13.72583 | 100.77002 | 738 ft | 140 kts | 194° |
| 2026-05-05 02:22 | 13.71640 | 100.76755 | 552 ft | 140 kts | 194° |
| 2026-05-05 02:23 | 13.70715 | 100.76511 | 375 ft | 138 kts | 195° |
| 2026-05-05 02:23 | 13.69771 | 100.76260 | 213 ft | 142 kts | 195° |
| 2026-05-05 02:23 | 13.69335 | 100.76146 | 123 ft | 141 kts | 203° |
| 2026-05-05 02:23 | 13.68655 | 100.75965 | 36 ft | 137 kts | 195° |
| 2026-05-05 02:24 | 13.67836 | 100.75754 | 15 ft | 100 kts | 194° |
| 2026-05-05 02:24 | 13.67347 | 100.75625 | 18 ft | 45 kts | 195° |
| 2026-05-05 02:24 | 13.67187 | 100.75536 | 17 ft | 26 kts | 220° |
| 2026-05-05 02:24 | 13.67153 | 100.75496 | 17 ft | 20 kts | 229° |
| 2026-05-05 02:25 | 13.67096 | 100.75436 | 17 ft | 13 kts | 244° |
| 2026-05-05 02:25 | 13.67125 | 100.75381 | 17 ft | 9 kts | 345° |
| 2026-05-05 02:25 | 13.67185 | 100.75391 | 18 ft | 9 kts | 13° |
| 2026-05-05 02:26 | 13.67244 | 100.75405 | 17 ft | 9 kts | 15° |
| 2026-05-05 02:26 | 13.67304 | 100.75422 | 17 ft | 9 kts | 15° |
| 2026-05-05 02:26 | 13.67363 | 100.75438 | 17 ft | 9 kts | 15° |
| 2026-05-05 02:26 | 13.67422 | 100.75454 | 17 ft | 9 kts | 15° |
| 2026-05-05 02:27 | 13.67481 | 100.75469 | 17 ft | 9 kts | 14° |
| 2026-05-05 02:27 | 13.67541 | 100.75484 | 17 ft | 9 kts | 14° |
| 2026-05-05 02:27 | 13.67600 | 100.75499 | 17 ft | 9 kts | 14° |
| 2026-05-05 02:27 | 13.67659 | 100.75514 | 17 ft | 9 kts | 14° |
| 2026-05-05 02:28 | 13.67718 | 100.75529 | 17 ft | 9 kts | 14° |
| 2026-05-05 02:28 | 13.67798 | 100.75551 | 17 ft | 16 kts | 15° |
| 2026-05-05 02:28 | 13.67919 | 100.75584 | 17 ft | 18 kts | 15° |
| 2026-05-05 02:28 | 13.68046 | 100.75617 | 17 ft | 18 kts | 14° |
| 2026-05-05 02:29 | 13.68169 | 100.75650 | 17 ft | 18 kts | 14° |
| 2026-05-05 02:29 | 13.68295 | 100.75683 | 18 ft | 18 kts | 14° |
| 2026-05-05 02:29 | 13.68397 | 100.75708 | 18 ft | 10 kts | 7° |
| 2026-05-05 02:29 | 13.68449 | 100.75671 | 18 ft | 10 kts | 301° |
| 2026-05-05 02:30 | 13.68467 | 100.75607 | 18 ft | 10 kts | 284° |
| 2026-05-05 02:30 | 13.68484 | 100.75540 | 17 ft | 10 kts | 285° |
| 2026-05-05 02:30 | 13.68501 | 100.75471 | 17 ft | 12 kts | 285° |
| 2026-05-05 02:30 | 13.68525 | 100.75380 | 17 ft | 14 kts | 285° |
| 2026-05-05 02:31 | 13.68549 | 100.75283 | 17 ft | 14 kts | 284° |
| 2026-05-05 02:31 | 13.68573 | 100.75189 | 17 ft | 11 kts | 284° |
| 2026-05-05 02:31 | 13.68625 | 100.75147 | 17 ft | 10 kts | 355° |
| 2026-05-05 02:31 | 13.68671 | 100.75155 | 17 ft | 10 kts | 13° |
| 2026-05-05 02:32 | 13.68760 | 100.75177 | 18 ft | 10 kts | 14° |
| 2026-05-05 02:32 | 13.68828 | 100.75194 | 17 ft | 10 kts | 14° |
| 2026-05-05 02:32 | 13.68895 | 100.75213 | 17 ft | 10 kts | 15° |
| 2026-05-05 02:32 | 13.68937 | 100.75225 | 17 ft | 6 kts | 16° |
| 2026-05-05 02:33 | 13.68951 | 100.75260 | 17 ft | 6 kts | 98° |
| 2026-05-05 02:33 | 13.68945 | 100.75291 | 17 ft | 2 kts | 103° |
| 2026-05-05 02:33 | 13.68943 | 100.75300 | 17 ft | 1 kts | 103° |
| 2026-05-05 02:33 | 13.68942 | 100.75306 | 17 ft | 1 kts | 103° |